Terminal Aerodrome Forecast
Issued by NWS Charleston, WV

Current Version | Previous Version | Text Only | Print | Product List | Glossary Off
Versions: 1 2 3 4 5 6 7 8 9 10 11 12 13 14 15 16 17 18 19 20 21 22 23 24 25 26 27

000
FTUS41 KRLX 300628 AAA
TAFEKN
TAF AMD
KEKN 300628Z 3006/0106 00000KT 1/2SM FG OVC002 WS020/19030KT
     FM301100 19008KT P6SM -SHRA OVC040
     FM301600 19011G18KT P6SM SHRA OVC035
     FM301900 23014G24KT P6SM OVC025
     FM302100 25012G23KT 2SM SHRA OVC015
     FM302300 26009G18KT 3SM -SHRA OVC025=

USA.gov is the U.S. government's official web portal to all federal, state and local government web resources and services.